createdAt,value
2019-03-17T00:00:26.531Z,995.33
2019-03-17T00:01:26.520Z,995.39
2019-03-17T00:02:26.507Z,995.42
2019-03-17T00:03:26.486Z,995.43
2019-03-17T00:04:31.304Z,995.41
2019-03-17T00:05:27.470Z,995.36
2019-03-17T00:06:26.471Z,995.34
2019-03-17T00:07:26.462Z,995.35
2019-03-17T00:08:26.456Z,995.32
2019-03-17T00:09:26.421Z,995.31
2019-03-17T00:10:26.413Z,995.34
2019-03-17T00:11:26.403Z,995.31
2019-03-17T00:12:26.387Z,995.30
2019-03-17T00:13:26.392Z,995.28
2019-03-17T00:14:26.379Z,995.26
2019-03-17T00:15:26.357Z,995.22
2019-03-17T00:16:26.349Z,995.15
2019-03-17T00:17:26.339Z,995.12
2019-03-17T00:18:26.327Z,995.15
2019-03-17T00:19:27.641Z,995.09
2019-03-17T00:20:26.313Z,995.09
2019-03-17T00:21:26.290Z,995.09
2019-03-17T00:22:26.280Z,995.09
2019-03-17T00:23:26.267Z,995.02
2019-03-17T00:24:26.267Z,995.06
2019-03-17T00:25:26.267Z,994.99
2019-03-17T00:26:26.239Z,995.03
2019-03-17T00:27:26.223Z,994.97
2019-03-17T00:28:26.215Z,994.95
2019-03-17T00:29:26.219Z,994.97
2019-03-17T00:30:26.208Z,994.91
2019-03-17T00:31:26.185Z,994.86
2019-03-17T00:32:26.166Z,994.88
2019-03-17T00:33:26.157Z,994.79
2019-03-17T00:34:26.157Z,994.86
2019-03-17T00:35:26.139Z,994.85
2019-03-17T00:36:26.135Z,994.80
2019-03-17T00:37:26.123Z,994.82
2019-03-17T00:38:26.111Z,994.80
2019-03-17T00:39:26.095Z,994.79
2019-03-17T00:40:26.085Z,994.77
2019-03-17T00:41:26.082Z,994.75
2019-03-17T00:42:26.080Z,994.64
2019-03-17T00:43:26.061Z,994.65
2019-03-17T00:44:26.045Z,994.65
2019-03-17T00:45:26.035Z,994.67
2019-03-17T00:46:26.021Z,994.69
2019-03-17T00:47:26.014Z,994.64
2019-03-17T00:48:26.012Z,994.59
2019-03-17T00:49:25.995Z,994.57
2019-03-17T00:50:25.975Z,994.63
2019-03-17T00:51:25.982Z,994.62
2019-03-17T00:52:25.975Z,994.66
2019-03-17T00:53:25.954Z,994.57
2019-03-17T00:54:25.943Z,994.50
2019-03-17T00:55:25.920Z,994.54
2019-03-17T00:56:25.915Z,994.48
2019-03-17T00:57:25.903Z,994.41
2019-03-17T00:58:25.904Z,994.36
2019-03-17T00:59:25.878Z,994.36
2019-03-17T01:00:25.876Z,994.34
2019-03-17T01:01:25.862Z,994.33
2019-03-17T01:02:25.847Z,994.33
2019-03-17T01:03:25.841Z,994.33
2019-03-17T01:04:25.829Z,994.31
2019-03-17T01:05:25.841Z,994.34
2019-03-17T01:06:25.812Z,994.32
2019-03-17T01:07:25.803Z,994.25
2019-03-17T01:08:25.799Z,994.22
2019-03-17T01:09:25.790Z,994.28
2019-03-17T01:10:25.777Z,994.25
2019-03-17T01:11:25.775Z,994.27
2019-03-17T01:12:25.744Z,994.32
2019-03-17T01:13:25.733Z,994.32
2019-03-17T01:14:25.722Z,994.33
2019-03-17T01:15:25.739Z,994.30
2019-03-17T01:16:25.716Z,994.22
2019-03-17T01:17:25.693Z,994.29
2019-03-17T01:18:25.692Z,994.29
2019-03-17T01:19:25.671Z,994.26
2019-03-17T01:20:25.655Z,994.28
2019-03-17T01:21:25.658Z,994.24
2019-03-17T01:22:25.655Z,994.18
2019-03-17T01:23:25.627Z,994.07
2019-03-17T01:24:25.619Z,994.14
2019-03-17T01:25:25.607Z,994.19
2019-03-17T01:26:25.594Z,994.25
2019-03-17T01:27:25.599Z,994.14
2019-03-17T01:28:25.589Z,994.14
2019-03-17T01:29:25.595Z,994.18
2019-03-17T01:30:25.555Z,994.11
2019-03-17T01:31:25.545Z,994.12
2019-03-17T01:32:25.535Z,994.21
2019-03-17T01:33:25.528Z,994.11
2019-03-17T01:34:25.517Z,994.14
2019-03-17T01:35:25.501Z,994.12
2019-03-17T01:36:25.490Z,994.12
2019-03-17T01:37:25.482Z,994.19
2019-03-17T01:38:25.474Z,994.11
2019-03-17T01:39:25.452Z,994.07
2019-03-17T01:40:25.444Z,994.12
2019-03-17T01:41:25.441Z,994.13
2019-03-17T01:42:25.432Z,994.10
2019-03-17T01:43:25.413Z,994.06
2019-03-17T01:44:25.423Z,994.06
2019-03-17T01:45:25.393Z,994.02
2019-03-17T01:46:25.383Z,994.05
2019-03-17T01:47:27.714Z,994.03
2019-03-17T01:48:25.373Z,993.98
2019-03-17T01:49:25.353Z,993.94
2019-03-17T01:50:25.343Z,993.97
2019-03-17T01:51:25.351Z,993.91
2019-03-17T01:52:25.319Z,993.94
2019-03-17T01:53:25.318Z,993.92
2019-03-17T01:54:25.295Z,993.98
2019-03-17T01:55:25.289Z,993.90
2019-03-17T01:56:25.351Z,993.97
2019-03-17T01:57:25.264Z,993.94
2019-03-17T01:58:25.255Z,993.89
2019-03-17T01:59:25.267Z,993.83
2019-03-17T02:00:25.229Z,993.87
2019-03-17T02:01:25.227Z,993.88
2019-03-17T02:02:25.213Z,993.87
2019-03-17T02:03:25.198Z,993.88
2019-03-17T02:04:25.216Z,993.85
2019-03-17T02:05:25.186Z,993.89
2019-03-17T02:06:25.171Z,993.79
2019-03-17T02:07:25.163Z,993.84
2019-03-17T02:08:25.145Z,993.84
2019-03-17T02:09:25.138Z,993.79
2019-03-17T02:10:25.127Z,993.86
2019-03-17T02:11:25.133Z,993.82
2019-03-17T02:12:25.112Z,993.78
2019-03-17T02:13:25.099Z,993.80
2019-03-17T02:14:25.110Z,993.74
2019-03-17T02:15:25.084Z,993.73
2019-03-17T02:16:25.068Z,993.75
2019-03-17T02:17:25.053Z,993.74
2019-03-17T02:18:25.049Z,993.74
2019-03-17T02:19:25.035Z,993.73
2019-03-17T02:20:25.020Z,993.66
2019-03-17T02:21:25.030Z,993.69
2019-03-17T02:22:25.005Z,993.68
2019-03-17T02:23:24.995Z,993.71
2019-03-17T02:24:24.992Z,993.71
2019-03-17T02:25:24.971Z,993.67
2019-03-17T02:26:24.961Z,993.71
2019-03-17T02:27:24.953Z,993.71
2019-03-17T02:28:24.943Z,993.70
2019-03-17T02:29:24.934Z,993.72
2019-03-17T02:30:24.921Z,993.66
2019-03-17T02:31:24.909Z,993.63
2019-03-17T02:32:24.901Z,993.62
2019-03-17T02:33:24.888Z,993.61
2019-03-17T02:34:24.882Z,993.64
2019-03-17T02:35:37.605Z,993.54
2019-03-17T02:36:25.848Z,993.63
2019-03-17T02:37:24.866Z,993.53
2019-03-17T02:38:24.832Z,993.46
2019-03-17T02:39:26.380Z,993.58
2019-03-17T02:40:24.810Z,993.43
2019-03-17T02:41:24.817Z,993.46
2019-03-17T02:42:24.789Z,993.48
2019-03-17T02:43:24.779Z,993.41
2019-03-17T02:44:24.774Z,993.46
2019-03-17T02:45:24.759Z,993.52
2019-03-17T02:46:24.744Z,993.49
2019-03-17T02:47:24.755Z,993.46
2019-03-17T02:48:24.720Z,993.46
2019-03-17T02:49:24.711Z,993.46
2019-03-17T02:50:24.709Z,993.45
2019-03-17T02:51:24.698Z,993.36
2019-03-17T02:52:24.698Z,993.40
2019-03-17T02:53:24.675Z,993.39
2019-03-17T02:54:24.661Z,993.36
2019-03-17T02:55:24.661Z,993.30
2019-03-17T02:56:24.647Z,993.38
2019-03-17T02:57:24.630Z,993.38
2019-03-17T02:58:24.631Z,993.33
2019-03-17T02:59:24.608Z,993.34
2019-03-17T03:00:24.645Z,993.36
2019-03-17T03:01:24.588Z,993.36
2019-03-17T03:02:24.571Z,993.33
2019-03-17T03:03:24.572Z,993.31
2019-03-17T03:04:24.561Z,993.28
2019-03-17T03:05:24.544Z,993.31
2019-03-17T03:06:24.534Z,993.32
2019-03-17T03:07:24.530Z,993.32
2019-03-17T03:08:24.527Z,993.27
2019-03-17T03:09:24.509Z,993.27
2019-03-17T03:10:24.503Z,993.21
2019-03-17T03:11:24.511Z,993.20
2019-03-17T03:12:24.471Z,993.19
2019-03-17T03:13:24.476Z,993.16
2019-03-17T03:14:24.462Z,993.18
2019-03-17T03:15:24.450Z,993.16
2019-03-17T03:16:24.443Z,993.06
2019-03-17T03:17:24.427Z,993.11
2019-03-17T03:18:24.405Z,993.13
2019-03-17T03:19:24.394Z,993.16
2019-03-17T03:20:24.394Z,993.13
2019-03-17T03:21:24.383Z,993.14
2019-03-17T03:22:24.474Z,993.13
2019-03-17T03:23:24.366Z,993.08
2019-03-17T03:24:24.342Z,993.04
2019-03-17T03:25:24.334Z,993.07
2019-03-17T03:26:24.334Z,993.02
2019-03-17T03:27:24.331Z,993.01
2019-03-17T03:28:24.304Z,993.00
2019-03-17T03:29:27.224Z,992.98
2019-03-17T03:30:24.279Z,993.05
2019-03-17T03:31:24.267Z,992.97
2019-03-17T03:32:24.258Z,993.01
2019-03-17T03:33:24.291Z,992.90
2019-03-17T03:34:24.255Z,992.90
2019-03-17T03:35:24.227Z,992.97
2019-03-17T03:36:24.247Z,993.04
2019-03-17T03:37:24.204Z,993.04
2019-03-17T03:38:24.200Z,992.99
2019-03-17T03:39:24.187Z,993.02
2019-03-17T03:40:24.173Z,993.04
2019-03-17T03:41:24.171Z,993.09
2019-03-17T03:42:24.156Z,993.03
2019-03-17T03:43:24.136Z,993.09
2019-03-17T03:44:24.139Z,993.03
2019-03-17T03:45:24.123Z,992.98
2019-03-17T03:46:24.133Z,992.98
2019-03-17T03:47:24.103Z,992.95
2019-03-17T03:48:24.102Z,992.98
2019-03-17T03:49:24.111Z,992.93
2019-03-17T03:50:24.070Z,992.92
2019-03-17T03:51:24.058Z,992.89
2019-03-17T03:52:24.041Z,992.84
2019-03-17T03:53:24.034Z,992.91
2019-03-17T03:54:24.023Z,992.89
2019-03-17T03:55:24.028Z,992.79
2019-03-17T03:56:24.003Z,992.83
2019-03-17T03:57:23.991Z,992.83
2019-03-17T03:58:23.984Z,992.76
2019-03-17T03:59:23.984Z,992.69
2019-03-17T04:00:23.963Z,992.73
2019-03-17T04:01:23.957Z,992.68
2019-03-17T04:02:23.945Z,992.73
2019-03-17T04:03:23.931Z,992.76
2019-03-17T04:04:23.918Z,992.70
2019-03-17T04:05:23.915Z,992.76
2019-03-17T04:06:26.673Z,992.76
2019-03-17T04:07:23.891Z,992.79
2019-03-17T04:08:23.880Z,992.73
2019-03-17T04:09:23.868Z,992.73
2019-03-17T04:10:23.851Z,992.70
2019-03-17T04:11:23.854Z,992.69
2019-03-17T04:12:23.843Z,992.74
2019-03-17T04:13:23.831Z,992.65
2019-03-17T04:14:23.813Z,992.68
2019-03-17T04:15:23.813Z,992.60
2019-03-17T04:16:23.789Z,992.67
2019-03-17T04:17:23.782Z,992.63
2019-03-17T04:18:23.780Z,992.64
2019-03-17T04:19:23.751Z,992.62
2019-03-17T04:20:23.748Z,992.66
2019-03-17T04:21:23.739Z,992.61
2019-03-17T04:22:23.750Z,992.63
2019-03-17T04:23:23.714Z,992.54
2019-03-17T04:24:23.717Z,992.56
2019-03-17T04:25:23.696Z,992.59
2019-03-17T04:26:23.692Z,992.56
2019-03-17T04:27:23.671Z,992.57
2019-03-17T04:28:23.656Z,992.55
2019-03-17T04:29:23.655Z,992.49
2019-03-17T04:30:23.645Z,992.50
2019-03-17T04:31:23.635Z,992.55
2019-03-17T04:32:23.630Z,992.53
2019-03-17T04:33:23.607Z,992.49
2019-03-17T04:34:23.597Z,992.49
2019-03-17T04:35:23.603Z,992.44
2019-03-17T04:36:23.581Z,992.41
2019-03-17T04:37:23.561Z,992.47
2019-03-17T04:38:23.548Z,992.42
2019-03-17T04:39:23.546Z,992.45
2019-03-17T04:40:23.599Z,992.43
2019-03-17T04:41:23.530Z,992.34
2019-03-17T04:42:23.517Z,992.39
2019-03-17T04:43:23.498Z,992.40
2019-03-17T04:44:23.493Z,992.34
2019-03-17T04:45:23.477Z,992.33
2019-03-17T04:46:23.469Z,992.36
2019-03-17T04:47:23.503Z,992.36
2019-03-17T04:48:23.449Z,992.30
2019-03-17T04:49:23.436Z,992.26
2019-03-17T04:50:23.452Z,992.29
2019-03-17T04:51:23.411Z,992.21
2019-03-17T04:52:23.403Z,992.16
2019-03-17T04:53:23.389Z,992.20
2019-03-17T04:54:23.377Z,992.26
2019-03-17T04:55:23.371Z,992.26
2019-03-17T04:56:23.365Z,992.23
2019-03-17T04:57:23.348Z,992.16
2019-03-17T04:58:23.363Z,992.17
2019-03-17T04:59:23.334Z,992.13
2019-03-17T05:00:23.316Z,992.22
2019-03-17T05:01:23.309Z,992.23
2019-03-17T05:02:23.291Z,992.28
2019-03-17T05:03:23.284Z,992.25
2019-03-17T05:04:23.271Z,992.26
2019-03-17T05:05:23.261Z,992.30
2019-03-17T05:06:23.247Z,992.26
2019-03-17T05:07:23.237Z,992.22
2019-03-17T05:08:23.229Z,992.26
2019-03-17T05:09:23.217Z,992.20
2019-03-17T05:10:23.215Z,992.21
2019-03-17T05:11:23.218Z,992.14
2019-03-17T05:12:23.181Z,992.16
2019-03-17T05:13:23.177Z,992.11
2019-03-17T05:14:23.176Z,992.18
2019-03-17T05:15:23.158Z,992.11
2019-03-17T05:16:23.139Z,992.06
2019-03-17T05:17:23.133Z,992.04
2019-03-17T05:18:23.119Z,992.08
2019-03-17T05:19:23.116Z,992.03
2019-03-17T05:20:23.093Z,991.96
2019-03-17T05:21:23.085Z,991.95
2019-03-17T05:22:23.071Z,991.97
2019-03-17T05:23:23.061Z,991.99
2019-03-17T05:24:23.073Z,992.00
2019-03-17T05:25:23.051Z,991.98
2019-03-17T05:26:23.036Z,991.94
2019-03-17T05:27:23.025Z,991.97
2019-03-17T05:28:23.272Z,991.97
2019-03-17T05:29:23.000Z,992.00
2019-03-17T05:30:22.995Z,991.94
2019-03-17T05:31:22.983Z,991.91
2019-03-17T05:32:22.973Z,991.98
2019-03-17T05:33:22.957Z,991.87
2019-03-17T05:34:22.964Z,991.90
2019-03-17T05:35:22.940Z,991.86
2019-03-17T05:36:22.936Z,991.86
2019-03-17T05:37:22.925Z,991.86
2019-03-17T05:38:22.934Z,991.89
2019-03-17T05:39:22.888Z,991.87
2019-03-17T05:40:22.889Z,991.84
2019-03-17T05:41:22.877Z,991.84
2019-03-17T05:42:22.869Z,991.79
2019-03-17T05:43:22.857Z,991.92
2019-03-17T05:44:22.845Z,991.90
2019-03-17T05:45:22.833Z,991.79
2019-03-17T05:46:22.813Z,991.81
2019-03-17T05:47:22.837Z,991.88
2019-03-17T05:48:22.800Z,991.86
2019-03-17T05:49:22.791Z,991.85
2019-03-17T05:50:22.775Z,991.86
2019-03-17T05:51:22.769Z,991.83
2019-03-17T05:52:22.755Z,991.82
2019-03-17T05:53:22.743Z,991.80
2019-03-17T05:54:22.741Z,991.84
2019-03-17T05:55:22.729Z,991.78
2019-03-17T05:56:22.711Z,991.78
2019-03-17T05:57:22.734Z,991.79
2019-03-17T05:58:22.692Z,991.78
2019-03-17T05:59:22.681Z,991.74
2019-03-17T06:00:22.673Z,991.78
2019-03-17T06:01:22.659Z,991.79
2019-03-17T06:02:22.649Z,991.79
2019-03-17T06:03:22.641Z,991.81
2019-03-17T06:04:22.627Z,991.81
2019-03-17T06:05:22.625Z,991.85
2019-03-17T06:06:22.607Z,991.85
2019-03-17T06:07:22.599Z,991.81
2019-03-17T06:08:22.579Z,991.81
2019-03-17T06:09:22.575Z,991.78
2019-03-17T06:10:22.581Z,991.82
2019-03-17T06:11:22.554Z,991.82
2019-03-17T06:12:22.568Z,991.85
2019-03-17T06:13:22.535Z,991.82
2019-03-17T06:14:22.517Z,991.77
2019-03-17T06:15:22.509Z,991.77
2019-03-17T06:16:22.502Z,991.77
2019-03-17T06:17:22.495Z,991.77
2019-03-17T06:18:22.489Z,991.82
2019-03-17T06:19:22.468Z,991.80
2019-03-17T06:20:22.477Z,991.78
2019-03-17T06:21:22.453Z,991.87
2019-03-17T06:22:22.439Z,991.89
2019-03-17T06:23:22.441Z,991.80
2019-03-17T06:24:22.415Z,991.79
2019-03-17T06:25:22.449Z,991.80
2019-03-17T06:26:22.395Z,991.85
2019-03-17T06:27:22.394Z,991.85
2019-03-17T06:28:22.429Z,991.88
2019-03-17T06:29:22.368Z,991.92
2019-03-17T06:30:22.351Z,991.88
2019-03-17T06:31:22.336Z,991.84
2019-03-17T06:32:22.329Z,991.91
2019-03-17T06:33:22.330Z,991.90
2019-03-17T06:34:24.304Z,991.88
2019-03-17T06:35:22.297Z,991.97
2019-03-17T06:36:22.291Z,991.92
2019-03-17T06:37:30.893Z,991.91
2019-03-17T06:38:23.265Z,991.91
2019-03-17T06:39:22.256Z,992.04
2019-03-17T06:40:22.245Z,991.92
2019-03-17T06:41:22.239Z,991.90
2019-03-17T06:42:22.221Z,991.95
2019-03-17T06:43:22.239Z,991.97
2019-03-17T06:44:22.207Z,991.91
2019-03-17T06:45:22.357Z,991.89
2019-03-17T06:46:22.182Z,991.86
2019-03-17T06:47:22.176Z,991.92
2019-03-17T06:48:22.154Z,991.99
2019-03-17T06:49:22.143Z,991.93
2019-03-17T06:50:22.139Z,991.90
2019-03-17T06:51:22.131Z,991.97
2019-03-17T06:52:22.131Z,991.97
2019-03-17T06:53:22.103Z,991.89
2019-03-17T06:54:22.091Z,991.94
2019-03-17T06:55:22.109Z,991.92
2019-03-17T06:56:22.085Z,991.91
2019-03-17T06:57:22.172Z,991.93
2019-03-17T06:58:22.124Z,991.88
2019-03-17T06:59:22.189Z,991.91
2019-03-17T07:00:22.113Z,991.89
2019-03-17T07:01:22.035Z,991.86
2019-03-17T07:02:22.160Z,991.83
2019-03-17T07:03:22.051Z,991.89
2019-03-17T07:04:22.063Z,991.88
2019-03-17T07:05:21.977Z,991.82
2019-03-17T07:06:22.038Z,991.84
2019-03-17T07:07:21.959Z,991.83
2019-03-17T07:08:21.953Z,991.73
2019-03-17T07:09:22.027Z,991.78
2019-03-17T07:10:21.931Z,991.72
2019-03-17T07:11:21.910Z,991.71
2019-03-17T07:12:21.902Z,991.80
2019-03-17T07:13:21.887Z,991.80
2019-03-17T07:14:21.895Z,991.76
2019-03-17T07:15:21.871Z,991.78
2019-03-17T07:16:21.893Z,991.75
2019-03-17T07:17:21.854Z,991.75
2019-03-17T07:18:21.841Z,991.71
2019-03-17T07:19:21.853Z,991.61
2019-03-17T07:20:21.821Z,991.69
2019-03-17T07:21:21.805Z,991.81
2019-03-17T07:22:21.787Z,991.86
2019-03-17T07:23:21.783Z,991.82
2019-03-17T07:24:21.769Z,991.84
2019-03-17T07:25:21.765Z,991.90
2019-03-17T07:26:21.757Z,991.75
2019-03-17T07:27:21.741Z,991.88
2019-03-17T07:28:21.727Z,991.76
2019-03-17T07:29:21.717Z,991.76
2019-03-17T07:30:21.717Z,991.82
2019-03-17T07:31:21.697Z,991.83
2019-03-17T07:32:21.689Z,991.90
2019-03-17T07:33:21.681Z,991.75
2019-03-17T07:34:21.660Z,991.81
2019-03-17T07:35:21.661Z,991.74
2019-03-17T07:36:21.647Z,991.78
2019-03-17T07:37:21.641Z,991.79
2019-03-17T07:38:21.619Z,991.80
2019-03-17T07:39:21.611Z,991.79
2019-03-17T07:40:21.611Z,991.74
2019-03-17T07:41:21.587Z,991.83
2019-03-17T07:42:21.619Z,991.76
2019-03-17T07:43:21.590Z,991.78
2019-03-17T07:44:21.553Z,991.77
2019-03-17T07:45:21.559Z,991.71
2019-03-17T07:46:21.537Z,991.73
2019-03-17T07:47:21.526Z,991.82
2019-03-17T07:48:21.520Z,991.82
2019-03-17T07:49:21.505Z,991.77
2019-03-17T07:50:21.491Z,991.85
2019-03-17T07:51:21.491Z,991.68
2019-03-17T07:52:21.477Z,991.94
2019-03-17T07:53:21.459Z,992.04
2019-03-17T07:54:21.457Z,992.08
2019-03-17T07:55:23.265Z,992.09
2019-03-17T07:56:21.421Z,992.10
2019-03-17T07:57:21.413Z,992.09
2019-03-17T07:58:21.405Z,992.01
2019-03-17T07:59:21.405Z,992.02
2019-03-17T08:00:31.250Z,992.08
2019-03-17T08:01:22.370Z,992.11
2019-03-17T08:02:21.361Z,992.27
2019-03-17T08:03:21.347Z,992.07
2019-03-17T08:04:21.343Z,992.19
2019-03-17T08:05:21.374Z,992.12
2019-03-17T08:06:21.317Z,992.11
2019-03-17T08:07:21.466Z,992.00
2019-03-17T08:08:21.314Z,992.18
2019-03-17T08:09:21.298Z,992.19
2019-03-17T08:10:21.309Z,992.29
2019-03-17T08:11:21.272Z,992.19
2019-03-17T08:12:21.258Z,992.18
2019-03-17T08:13:21.252Z,992.12
2019-03-17T08:14:21.242Z,992.21
2019-03-17T08:15:21.230Z,992.18
2019-03-17T08:16:21.220Z,992.23
2019-03-17T08:17:21.213Z,992.20
2019-03-17T08:18:21.198Z,992.30
2019-03-17T08:19:21.251Z,992.30
2019-03-17T08:20:21.177Z,992.15
2019-03-17T08:21:21.170Z,992.15
2019-03-17T08:22:21.160Z,992.16
2019-03-17T08:23:21.139Z,992.20
2019-03-17T08:24:21.133Z,992.46
2019-03-17T08:25:21.138Z,991.79
2019-03-17T08:26:21.113Z,992.33
2019-03-17T08:27:21.101Z,991.78
2019-03-17T08:28:21.094Z,992.05
2019-03-17T08:29:21.077Z,991.95
2019-03-17T08:30:21.070Z,992.33
2019-03-17T08:31:21.060Z,991.74
2019-03-17T08:32:21.049Z,991.67
2019-03-17T08:33:21.043Z,991.68
2019-03-17T08:34:21.029Z,991.62
2019-03-17T08:35:21.015Z,991.70
2019-03-17T08:36:21.010Z,991.62
2019-03-17T08:37:21.003Z,991.67
2019-03-17T08:38:22.227Z,991.64
2019-03-17T08:39:20.978Z,991.64
2019-03-17T08:40:20.967Z,991.61
2019-03-17T08:41:20.977Z,991.68
2019-03-17T08:42:20.957Z,991.65
2019-03-17T08:43:20.934Z,991.71
2019-03-17T08:44:20.928Z,991.75
2019-03-17T08:45:20.925Z,991.60
2019-03-17T08:46:20.909Z,991.68
2019-03-17T08:47:22.477Z,991.69
2019-03-17T08:48:20.899Z,991.70
2019-03-17T08:49:20.872Z,991.72
2019-03-17T08:50:20.865Z,992.30
2019-03-17T08:51:20.960Z,991.72
2019-03-17T08:52:20.840Z,991.82
2019-03-17T08:53:20.822Z,992.08
2019-03-17T08:54:20.818Z,992.00
2019-03-17T08:55:20.817Z,991.75
2019-03-17T08:56:20.793Z,991.68
2019-03-17T08:57:20.794Z,991.76
2019-03-17T08:58:20.769Z,991.90
2019-03-17T08:59:20.759Z,992.06
2019-03-17T09:00:20.765Z,992.22
2019-03-17T09:01:20.758Z,992.08
2019-03-17T09:02:20.740Z,991.89
2019-03-17T09:03:20.727Z,991.95
2019-03-17T09:04:20.711Z,991.80
2019-03-17T09:05:20.761Z,991.97
2019-03-17T09:06:20.694Z,992.29
2019-03-17T09:07:20.676Z,992.36
2019-03-17T09:08:20.680Z,992.37
2019-03-17T09:09:20.679Z,992.34
2019-03-17T09:10:20.649Z,992.37
2019-03-17T09:11:20.630Z,992.35
2019-03-17T09:12:20.623Z,992.33
2019-03-17T09:13:20.614Z,992.26
2019-03-17T09:14:20.624Z,992.34
2019-03-17T09:15:20.590Z,992.26
2019-03-17T09:16:20.589Z,992.34
2019-03-17T09:17:20.599Z,991.91
2019-03-17T09:18:20.560Z,992.33
2019-03-17T09:19:20.562Z,992.27
2019-03-17T09:20:20.557Z,992.42
2019-03-17T09:21:20.535Z,992.45
2019-03-17T09:22:20.537Z,992.37
2019-03-17T09:23:20.519Z,992.41
2019-03-17T09:24:20.505Z,992.50
2019-03-17T09:25:20.500Z,992.42
2019-03-17T09:26:20.493Z,992.46
2019-03-17T09:27:20.498Z,992.29
2019-03-17T09:28:20.460Z,992.40
2019-03-17T09:29:20.466Z,992.53
2019-03-17T09:30:20.459Z,992.50
2019-03-17T09:31:20.437Z,992.49
2019-03-17T09:32:20.441Z,992.53
2019-03-17T09:33:20.419Z,992.17
2019-03-17T09:34:20.411Z,992.52
2019-03-17T09:35:20.397Z,992.54
2019-03-17T09:36:20.435Z,991.84
2019-03-17T09:37:20.423Z,991.78
2019-03-17T09:38:20.371Z,991.76
2019-03-17T09:39:20.353Z,992.09
2019-03-17T09:40:20.402Z,992.27
2019-03-17T09:41:20.332Z,992.10
2019-03-17T09:42:20.335Z,992.36
2019-03-17T09:43:20.320Z,992.40
2019-03-17T09:44:20.320Z,991.67
2019-03-17T09:45:20.300Z,992.30
2019-03-17T09:46:20.360Z,991.73
2019-03-17T09:47:20.304Z,992.44
2019-03-17T09:48:20.300Z,991.73
2019-03-17T09:49:20.269Z,992.18
2019-03-17T09:50:20.376Z,991.58
2019-03-17T09:51:20.250Z,991.71
2019-03-17T09:52:20.271Z,991.68
2019-03-17T09:53:20.226Z,991.79
2019-03-17T09:54:20.227Z,991.72
2019-03-17T09:55:20.236Z,992.17
2019-03-17T09:56:20.201Z,991.73
2019-03-17T09:57:20.179Z,991.75
2019-03-17T09:58:20.165Z,991.72
2019-03-17T09:59:20.154Z,991.71
2019-03-17T10:00:20.220Z,991.78
2019-03-17T10:01:20.142Z,991.82
2019-03-17T10:02:20.122Z,991.80
2019-03-17T10:03:20.129Z,991.74
2019-03-17T10:04:20.101Z,991.67
2019-03-17T10:05:20.095Z,991.68
2019-03-17T10:06:20.084Z,991.59
2019-03-17T10:07:20.073Z,991.66
2019-03-17T10:08:20.060Z,991.63
2019-03-17T10:09:20.059Z,991.75
2019-03-17T10:10:20.056Z,991.82
2019-03-17T10:11:20.036Z,991.82
2019-03-17T10:12:20.031Z,991.78
2019-03-17T10:13:20.033Z,991.81
2019-03-17T10:14:19.999Z,991.82
2019-03-17T10:15:20.057Z,991.81
2019-03-17T10:16:19.974Z,991.84
2019-03-17T10:17:19.957Z,991.85
2019-03-17T10:18:19.964Z,991.91
2019-03-17T10:19:19.931Z,991.91
2019-03-17T10:20:19.944Z,991.82
2019-03-17T10:21:19.921Z,991.88
2019-03-17T10:22:19.992Z,992.02
2019-03-17T10:23:19.925Z,991.95
2019-03-17T10:24:19.897Z,991.98
2019-03-17T10:25:19.881Z,992.04
2019-03-17T10:26:19.883Z,991.99
2019-03-17T10:27:19.888Z,991.96
2019-03-17T10:28:19.844Z,991.93
2019-03-17T10:29:19.847Z,991.90
2019-03-17T10:30:19.833Z,991.95
2019-03-17T10:31:19.817Z,991.85
2019-03-17T10:32:19.799Z,991.90
2019-03-17T10:33:19.795Z,991.89
2019-03-17T10:34:19.805Z,991.87
2019-03-17T10:35:19.803Z,991.92
2019-03-17T10:36:19.852Z,991.92
2019-03-17T10:37:19.811Z,991.96
2019-03-17T10:38:19.786Z,991.82
2019-03-17T10:39:19.753Z,991.91
2019-03-17T10:40:19.722Z,991.83
2019-03-17T10:41:19.708Z,991.84
2019-03-17T10:42:19.731Z,991.89
2019-03-17T10:43:19.689Z,991.92
2019-03-17T10:44:19.675Z,991.98
2019-03-17T10:45:19.655Z,991.94
2019-03-17T10:46:19.654Z,991.88
2019-03-17T10:47:19.650Z,991.85
2019-03-17T10:48:19.633Z,991.99
2019-03-17T10:49:19.655Z,991.94
2019-03-17T10:50:19.609Z,991.93
2019-03-17T10:51:19.588Z,991.93
2019-03-17T10:52:19.623Z,991.95
2019-03-17T10:53:19.601Z,991.98
2019-03-17T10:54:19.563Z,991.91
2019-03-17T10:55:19.566Z,991.89
2019-03-17T10:56:19.548Z,991.91
2019-03-17T10:57:19.532Z,991.83
2019-03-17T10:58:19.526Z,991.80
2019-03-17T10:59:19.507Z,991.88
2019-03-17T11:00:19.497Z,991.90
2019-03-17T11:01:19.488Z,991.81
2019-03-17T11:02:19.483Z,991.98
2019-03-17T11:03:19.476Z,991.99
2019-03-17T11:04:19.468Z,992.02
2019-03-17T11:05:19.446Z,991.99
2019-03-17T11:06:19.484Z,991.99
2019-03-17T11:07:19.456Z,992.08
2019-03-17T11:08:19.416Z,992.01
2019-03-17T11:09:25.092Z,992.16
2019-03-17T11:10:20.401Z,992.04
2019-03-17T11:11:19.380Z,991.94
2019-03-17T11:12:19.384Z,992.04
2019-03-17T11:13:19.388Z,991.97
2019-03-17T11:14:19.453Z,991.93
2019-03-17T11:15:19.354Z,992.00
2019-03-17T11:16:19.322Z,992.01
2019-03-17T11:17:19.312Z,991.96
2019-03-17T11:18:19.309Z,992.10
2019-03-17T11:19:19.289Z,992.00
2019-03-17T11:20:19.295Z,992.05
2019-03-17T11:21:19.284Z,991.81
2019-03-17T11:22:19.333Z,992.04
2019-03-17T11:23:19.251Z,991.96
2019-03-17T11:24:19.241Z,991.98
2019-03-17T11:25:19.349Z,991.99
2019-03-17T11:26:19.229Z,991.97
2019-03-17T11:27:19.199Z,992.01
2019-03-17T11:28:19.191Z,991.92
2019-03-17T11:29:19.209Z,992.05
2019-03-17T11:30:19.193Z,992.09
2019-03-17T11:31:19.183Z,991.97
2019-03-17T11:32:19.179Z,991.99
2019-03-17T11:33:19.142Z,991.92
2019-03-17T11:34:19.135Z,991.93
2019-03-17T11:35:19.119Z,991.94
2019-03-17T11:36:19.112Z,992.01
2019-03-17T11:37:19.095Z,992.01
2019-03-17T11:38:19.105Z,991.94
2019-03-17T11:39:19.072Z,992.08
2019-03-17T11:40:19.067Z,991.95
2019-03-17T11:41:19.075Z,992.03
2019-03-17T11:42:19.044Z,992.07
2019-03-17T11:43:19.047Z,992.02
2019-03-17T11:44:19.022Z,992.04
2019-03-17T11:45:19.026Z,992.09
2019-03-17T11:46:19.015Z,992.12
2019-03-17T11:47:18.994Z,991.97
2019-03-17T11:48:19.041Z,992.04
2019-03-17T11:49:19.005Z,992.11
2019-03-17T11:50:18.960Z,992.13
2019-03-17T11:51:18.952Z,992.06
2019-03-17T11:52:18.965Z,992.04
2019-03-17T11:53:18.936Z,992.25
2019-03-17T11:54:18.929Z,992.13
2019-03-17T11:55:18.901Z,992.11
2019-03-17T11:56:18.894Z,992.11
2019-03-17T11:57:18.882Z,992.15
2019-03-17T11:58:18.877Z,992.16
2019-03-17T11:59:18.879Z,992.16
2019-03-17T12:00:18.879Z,992.14
2019-03-17T12:01:18.886Z,992.11
2019-03-17T12:02:26.608Z,992.22
2019-03-17T12:03:19.855Z,992.12
2019-03-17T12:04:18.833Z,992.01
2019-03-17T12:05:18.794Z,992.19
2019-03-17T12:06:18.797Z,992.10
2019-03-17T12:07:18.769Z,992.12
2019-03-17T12:08:18.762Z,992.15
2019-03-17T12:09:28.579Z,991.98
2019-03-17T12:10:19.759Z,991.97
2019-03-17T12:11:18.736Z,991.93
2019-03-17T12:12:18.747Z,991.91
2019-03-17T12:13:18.744Z,992.01
2019-03-17T12:14:18.715Z,991.91
2019-03-17T12:15:18.736Z,991.93
2019-03-17T12:16:18.726Z,991.93
2019-03-17T12:17:18.668Z,992.02
2019-03-17T12:18:18.700Z,992.00
2019-03-17T12:19:18.663Z,991.99
2019-03-17T12:20:18.642Z,992.00
2019-03-17T12:21:18.767Z,992.06
2019-03-17T12:22:18.682Z,991.98
2019-03-17T12:23:18.597Z,992.04
2019-03-17T12:24:18.656Z,991.97
2019-03-17T12:25:18.609Z,991.93
2019-03-17T12:26:18.575Z,991.89
2019-03-17T12:27:18.665Z,992.09
2019-03-17T12:28:18.590Z,992.08